Time;durP1;ratioP1;P1;durP2;ratioP2;P2;SDS_P1;SDS_P2;PMS_P1;PMS_P2;Temp;Humidity;BMP_temperature;BMP_pressure;BME280_temperature;BME280_humidity;BME280_pressure;Samples;Min_cycle;Max_cycle;Signal;HPM_P1;HPM_P2
2021/03/31 00:01:31;;;;;;;22.70;16.30;;;;;;;-144.99;85.85;52260.56;5087342;28;20273;-73
2021/03/31 00:03:58;;;;;;;29.70;18.20;;;;;;;-144.99;85.88;52264.66;5086677;28;20419;-72
2021/03/31 00:06:24;;;;;;;28.10;16.27;;;;;;;-144.99;85.61;52195.34;5080776;28;20207;-72
2021/03/31 00:08:50;;;;;;;28.27;19.67;;;;;;;-144.99;85.74;52252.44;5088866;28;20218;-73
2021/03/31 00:11:17;;;;;;;21.23;16.57;;;;;;;-144.99;85.73;52293.19;5088524;28;20619;-72
2021/03/31 00:13:44;;;;;;;20.80;14.73;;;;;;;-144.99;85.21;52268.72;5087824;28;20244;-72
2021/03/31 00:16:11;;;;;;;23.90;16.60;;;;;;;-144.99;85.15;52260.56;5079230;28;20203;-73
2021/03/31 00:18:37;;;;;;;24.80;15.97;;;;;;;-144.99;85.59;52276.88;5082576;28;20677;-72
2021/03/31 00:21:04;;;;;;;19.03;15.57;;;;;;;-144.99;85.46;52232.03;5086990;28;20693;-72
2021/03/31 00:23:31;;;;;;;23.70;15.93;;;;;;;-144.99;85.95;52276.88;5084968;28;20235;-74
2021/03/31 00:25:58;;;;;;;22.87;14.17;;;;;;;-144.99;86.05;52307.47;5088431;28;20265;-73
2021/03/31 00:28:25;;;;;;;23.43;14.73;;;;;;;-144.99;86.19;52260.56;5088457;28;20208;-74
2021/03/31 00:30:53;;;;;;;21.77;13.87;;;;;;;-144.99;86.28;52252.44;5077852;28;20216;-75
2021/03/31 00:33:21;;;;;;;23.67;15.27;;;;;;;-144.99;86.33;52276.88;5077955;28;20274;-74
2021/03/31 00:35:47;;;;;;;26.73;17.40;;;;;;;-144.99;86.51;52242.22;5088650;28;20200;-74
2021/03/31 00:38:13;;;;;;;24.33;14.73;;;;;;;-144.99;87.26;52280.97;5088438;28;20199;-75
2021/03/31 00:40:41;;;;;;;31.70;16.57;;;;;;;-144.99;87.67;52293.19;5083567;28;20204;-73
2021/03/31 00:43:08;;;;;;;21.97;16.77;;;;;;;-144.99;87.91;52285.03;5076170;28;20604;-74
2021/03/31 00:45:35;;;;;;;20.60;15.53;;;;;;;-144.99;88.33;52280.97;5088108;28;20203;-74
2021/03/31 00:48:02;;;;;;;32.57;18.03;;;;;;;-144.99;89.23;52280.97;5088992;28;20215;-73
2021/03/31 00:50:29;;;;;;;24.47;18.33;;;;;;;-144.99;90.85;52225.94;5087383;28;20192;-71
2021/03/31 00:52:57;;;;;;;23.13;15.90;;;;;;;-144.99;91.50;52276.88;5078502;28;20383;-73
2021/03/31 00:55:26;;;;;;;31.40;17.27;;;;;;;-144.99;91.90;52262.63;5078449;28;20200;-73
2021/03/31 00:57:52;;;;;;;23.93;16.23;;;;;;;-144.99;92.25;52276.88;5088769;28;20261;-74
2021/03/31 01:00:19;;;;;;;22.40;14.47;;;;;;;-144.99;92.51;52280.97;5087006;28;20208;-72
2021/03/31 01:02:46;;;;;;;22.70;17.80;;;;;;;-144.99;92.24;52299.31;5077173;28;20235;-72
2021/03/31 01:05:16;;;;;;;24.57;18.13;;;;;;;-144.99;91.85;52256.50;5081310;28;20266;-73
2021/03/31 01:07:43;;;;;;;24.03;14.97;;;;;;;-144.99;92.25;52256.50;5083954;28;20200;-72
2021/03/31 01:10:11;;;;;;;21.77;14.93;;;;;;;-144.99;92.20;52293.19;5075578;28;20196;-72
2021/03/31 01:12:50;;;;;;;25.50;16.53;;;;;;;-144.99;92.32;52252.44;5086143;28;20232;-72
2021/03/31 01:15:21;;;;;;;19.90;15.83;;;;;;;-144.99;92.49;52248.34;5088092;28;20212;-71
2021/03/31 01:17:53;;;;;;;23.73;14.73;;;;;;;-144.99;92.60;52260.56;5088778;28;20203;-72
2021/03/31 01:20:44;;;;;;;26.10;15.13;;;;;;;-144.99;92.74;52283.00;5087020;28;20197;-70
2021/03/31 01:23:43;;;;;;;23.17;13.27;;;;;;;-144.99;91.12;52236.13;5083740;28;20302;-71
2021/03/31 01:26:17;;;;;;;21.67;16.20;;;;;;;-144.99;90.66;52260.56;5088083;28;20193;-72
2021/03/31 01:29:02;;;;;;;27.97;15.43;;;;;;;-144.99;90.78;52236.13;5088299;28;20586;-72
2021/03/31 01:31:45;;;;;;;29.00;14.77;;;;;;;-144.99;90.91;52301.34;5076762;28;20221;-72
2021/03/31 01:34:36;;;;;;;21.97;16.07;;;;;;;-144.99;91.21;52297.25;5078278;28;20227;-71
2021/03/31 01:37:08;;;;;;;28.07;17.57;;;;;;;-144.99;91.46;52248.34;5091705;28;20588;-73
2021/03/31 01:39:36;;;;;;;27.47;17.40;;;;;;;-144.99;91.56;52287.06;5084242;28;20211;-73
2021/03/31 01:42:04;;;;;;;24.93;17.27;;;;;;;-144.99;91.86;52234.09;5082847;28;20200;-73
2021/03/31 01:44:30;;;;;;;25.97;16.70;;;;;;;-144.99;92.24;52250.38;5091192;28;20655;-72
2021/03/31 01:46:58;;;;;;;22.47;19.00;;;;;;;-144.99;92.44;52268.72;5090593;28;20204;-71
2021/03/31 01:49:27;;;;;;;25.40;19.47;;;;;;;-144.99;92.28;52283.00;5090059;28;20196;-71
2021/03/31 01:51:56;;;;;;;25.03;17.20;;;;;;;-144.99;92.13;52289.13;5087319;28;20238;-71
2021/03/31 01:54:23;;;;;;;31.23;18.87;;;;;;;-144.99;92.27;52283.00;5086884;28;20220;-71
2021/03/31 01:56:51;;;;;;;21.30;16.40;;;;;;;-144.99;91.95;52276.88;5090793;28;20230;-71
2021/03/31 01:59:19;;;;;;;23.33;16.60;;;;;;;-144.99;92.11;52289.13;5090503;28;20200;-71
2021/03/31 02:01:47;;;;;;;27.30;15.73;;;;;;;-144.99;91.77;52264.66;5081427;28;20246;-71
2021/03/31 02:04:15;;;;;;;25.40;15.57;;;;;;;-144.99;91.64;52262.63;5085999;28;20240;-71
2021/03/31 02:06:42;;;;;;;23.97;16.70;;;;;;;-144.99;91.60;52289.13;5090746;28;20249;-71
2021/03/31 02:09:10;;;;;;;23.03;15.30;;;;;;;-144.99;91.26;52268.72;5090399;28;20307;-70
2021/03/31 02:11:37;;;;;;;30.80;15.80;;;;;;;-144.99;91.11;52268.72;5085342;28;20216;-71
2021/03/31 02:14:06;;;;;;;22.90;15.70;;;;;;;-144.99;91.11;52246.31;5085111;28;20286;-72
2021/03/31 02:16:35;;;;;;;22.40;15.13;;;;;;;-144.99;91.02;52272.81;5090000;28;20207;-72
2021/03/31 02:19:02;;;;;;;27.47;15.47;;;;;;;-144.99;90.50;52260.56;5087106;28;20200;-73
2021/03/31 02:21:28;;;;;;;16.90;13.70;;;;;;;-144.99;90.09;52309.50;5091105;28;20204;-72
2021/03/31 02:23:56;;;;;;;20.77;14.37;;;;;;;-144.99;90.05;52313.56;5083120;28;20697;-72
2021/03/31 02:26:24;;;;;;;22.83;16.63;;;;;;;-144.99;89.77;52260.56;5091985;28;20208;-73
2021/03/31 02:28:52;;;;;;;21.37;13.57;;;;;;;-144.99;89.88;52285.03;5091263;28;20212;-72
2021/03/31 02:31:20;;;;;;;23.00;14.67;;;;;;;-144.99;90.29;52309.50;5079059;28;20232;-73
2021/03/31 02:33:48;;;;;;;25.50;14.00;;;;;;;-144.99;90.14;52246.31;5090716;28;20563;-72
2021/03/31 02:36:16;;;;;;;24.07;16.00;;;;;;;-144.99;89.95;52248.34;5090406;28;20658;-71
2021/03/31 02:38:43;;;;;;;18.57;13.03;;;;;;;-144.99;89.94;52248.34;5086746;28;20212;-73
2021/03/31 02:41:12;;;;;;;23.67;13.57;;;;;;;-144.99;90.05;52293.19;5084368;28;20196;-72
2021/03/31 02:43:43;;;;;;;18.83;13.60;;;;;;;-144.99;90.18;52285.03;5092871;28;20216;-73
2021/03/31 02:46:13;;;;;;;23.27;18.03;;;;;;;-144.99;89.76;52319.69;5097357;28;20216;-75
2021/03/31 02:48:43;;;;;;;22.97;16.23;;;;;;;-144.99;89.85;52276.88;5086724;28;20200;-73
2021/03/31 02:51:09;;;;;;;18.83;13.40;;;;;;;-144.99;90.36;52252.44;5083188;28;20196;-72
2021/03/31 02:53:37;;;;;;;22.07;15.33;;;;;;;-144.99;90.56;52280.97;5085517;28;20682;-71
2021/03/31 02:56:05;;;;;;;26.93;14.67;;;;;;;-144.99;90.83;52297.25;5089789;28;20196;-72
2021/03/31 02:58:32;;;;;;;22.27;16.67;;;;;;;-144.99;91.29;52238.16;5085021;28;20200;-72
2021/03/31 03:00:59;;;;;;;20.77;14.37;;;;;;;-144.99;91.45;52301.34;5088868;28;20646;-72
2021/03/31 03:03:26;;;;;;;18.53;13.67;;;;;;;-144.99;91.49;52276.88;5086995;28;20280;-73
2021/03/31 03:05:54;;;;;;;18.40;12.90;;;;;;;-144.99;91.58;52264.66;5090140;28;20570;-74
2021/03/31 03:08:20;;;;;;;18.53;12.87;;;;;;;-144.99;91.17;52252.44;5088880;28;20196;-72
2021/03/31 03:10:47;;;;;;;24.43;12.87;;;;;;;-144.99;91.16;52232.03;5075359;28;20642;-72
2021/03/31 03:13:14;;;;;;;19.77;14.67;;;;;;;-144.99;91.66;52268.72;5089551;28;20239;-74
2021/03/31 03:15:43;;;;;;;21.57;15.00;;;;;;;-144.99;91.61;52280.97;5089471;28;20289;-74
2021/03/31 03:18:09;;;;;;;25.13;15.70;;;;;;;-144.99;91.91;52262.63;5089743;28;20205;-75
2021/03/31 03:20:36;;;;;;;18.67;13.70;;;;;;;-144.99;92.29;52305.41;5083161;28;20632;-73
2021/03/31 03:23:03;;;;;;;28.03;16.20;;;;;;;-144.99;91.99;52287.06;5077871;28;20248;-74
2021/03/31 03:25:29;;;;;;;21.43;13.17;;;;;;;-144.99;92.06;52305.41;5085940;28;20208;-73
2021/03/31 03:27:56;;;;;;;22.03;13.30;;;;;;;-144.99;92.54;52309.50;5089943;28;20354;-74
2021/03/31 03:30:26;;;;;;;18.70;12.07;;;;;;;-144.99;92.66;52276.88;5082475;28;20196;-73
2021/03/31 03:32:54;;;;;;;25.00;16.47;;;;;;;-144.99;92.69;52268.72;5081655;28;20600;-73
2021/03/31 03:35:25;;;;;;;22.30;15.53;;;;;;;-144.99;92.46;52293.19;5090059;28;20626;-75
2021/03/31 03:37:52;;;;;;;16.00;13.67;;;;;;;-144.99;92.08;52272.81;5085099;28;20716;-74
2021/03/31 03:40:23;;;;;;;16.93;13.27;;;;;;;-144.99;92.02;52276.88;5084646;28;20204;-73
2021/03/31 03:42:49;;;;;;;18.27;14.10;;;;;;;-144.99;92.03;52244.28;5078236;28;20213;-73
2021/03/31 03:45:17;;;;;;;17.07;12.83;;;;;;;-144.99;91.90;52309.50;5089292;28;20192;-74
2021/03/31 03:47:44;;;;;;;21.93;14.00;;;;;;;-144.99;91.71;52276.88;5089774;28;20200;-72
2021/03/31 03:50:13;;;;;;;21.17;13.67;;;;;;;-144.99;91.65;52260.56;5087327;28;20193;-73
2021/03/31 03:52:40;;;;;;;19.03;13.47;;;;;;;-144.99;91.54;52278.91;5085063;28;20757;-73
2021/03/31 03:55:07;;;;;;;21.47;14.43;;;;;;;-144.99;91.29;52256.50;5086378;28;20208;-72
2021/03/31 03:57:34;;;;;;;16.10;13.20;;;;;;;-144.99;90.88;52305.41;5088453;28;20196;-73
2021/03/31 04:00:00;;;;;;;19.73;12.93;;;;;;;-144.99;90.97;52264.66;5086949;28;20249;-73
2021/03/31 04:02:26;;;;;;;20.13;13.23;;;;;;;-144.99;90.90;52252.44;5078004;28;20682;-71
2021/03/31 04:04:53;;;;;;;22.20;14.23;;;;;;;-144.99;90.77;52276.88;5082543;28;20391;-72
2021/03/31 04:07:20;;;;;;;20.60;14.40;;;;;;;-144.99;90.65;52268.72;5089554;28;20204;-72
2021/03/31 04:09:48;;;;;;;18.33;13.77;;;;;;;-144.99;90.71;52297.25;5088216;28;20247;-73
2021/03/31 04:12:16;;;;;;;20.80;12.00;;;;;;;-144.99;90.80;52297.25;5078265;28;20227;-72
2021/03/31 04:14:44;;;;;;;21.27;12.80;;;;;;;-144.99;90.72;52305.41;5087239;28;20205;-72
2021/03/31 04:17:12;;;;;;;17.63;11.97;;;;;;;-144.99;90.82;52225.94;5088362;28;20211;-71
2021/03/31 04:19:40;;;;;;;17.00;14.47;;;;;;;-144.99;90.84;52293.19;5144745;22;20767;-79
2021/03/31 04:22:06;;;;;;;21.10;13.73;;;;;;;-144.99;91.00;52285.03;5121738;27;20222;-75
2021/03/31 04:24:34;;;;;;;21.87;12.57;;;;;;;-144.99;90.83;52285.03;5118722;27;20644;-72
2021/03/31 04:27:02;;;;;;;21.13;13.70;;;;;;;-144.99;90.79;52319.69;5117360;27;21201;-75
2021/03/31 04:29:30;;;;;;;22.23;13.87;;;;;;;-144.99;90.78;52285.03;5116039;28;20740;-76
2021/03/31 04:31:56;;;;;;;20.27;13.67;;;;;;;-144.99;90.93;52285.03;5112843;28;20246;-71
2021/03/31 04:34:23;;;;;;;19.47;13.53;;;;;;;-144.99;91.34;52252.44;5099281;28;20618;-72
2021/03/31 04:36:49;;;;;;;23.87;13.67;;;;;;;-144.99;91.38;52272.81;5112211;28;20662;-74
2021/03/31 04:39:16;;;;;;;18.67;12.57;;;;;;;-144.99;91.69;52280.97;5108977;28;20300;-73
2021/03/31 04:41:43;;;;;;;21.67;14.33;;;;;;;-144.99;91.93;52252.44;5110568;28;20660;-78
2021/03/31 04:44:10;;;;;;;19.50;11.67;;;;;;;-144.99;92.05;52256.50;5115033;28;20717;-73
2021/03/31 04:46:36;;;;;;;14.13;10.43;;;;;;;-144.99;92.18;52289.13;5111886;28;20617;-73
2021/03/31 04:49:02;;;;;;;20.57;12.70;;;;;;;-144.99;92.47;52289.13;5110985;28;20658;-81
2021/03/31 04:51:29;;;;;;;23.33;16.17;;;;;;;-144.99;92.33;52280.97;5103343;28;20212;-78
2021/03/31 04:53:55;;;;;;;17.23;11.90;;;;;;;-144.99;92.24;52333.94;5106895;28;20649;-73
2021/03/31 04:56:21;;;;;;;17.07;13.17;;;;;;;-144.99;92.47;52285.03;5106871;28;20613;-74
2021/03/31 04:58:48;;;;;;;19.77;14.53;;;;;;;-144.99;92.54;52285.03;5112371;28;20659;-76
2021/03/31 05:01:15;;;;;;;24.33;13.37;;;;;;;-144.99;92.71;52260.56;5094298;28;20622;-76
2021/03/31 05:03:41;;;;;;;26.00;13.90;;;;;;;-144.99;92.78;52293.19;5112078;28;20617;-78
2021/03/31 05:06:07;;;;;;;22.13;12.57;;;;;;;-144.99;92.79;52264.66;5110654;28;21151;-77
2021/03/31 05:08:33;;;;;;;18.00;11.83;;;;;;;-144.99;92.64;52260.56;5112595;28;20648;-73
2021/03/31 05:10:59;;;;;;;17.17;12.33;;;;;;;-144.99;92.66;52213.69;5109742;28;20195;-77
2021/03/31 05:13:26;;;;;;;25.97;16.50;;;;;;;-144.99;92.39;52299.31;5107175;28;20693;-77
2021/03/31 05:15:53;;;;;;;16.40;13.67;;;;;;;-144.99;92.52;52301.34;5106830;28;20613;-76
2021/03/31 05:18:19;;;;;;;19.13;12.57;;;;;;;-144.99;92.40;52252.44;5115553;28;20264;-76
2021/03/31 05:20:45;;;;;;;21.73;14.47;;;;;;;-144.99;92.03;52256.50;5098752;28;21943;-79
2021/03/31 05:23:11;;;;;;;19.00;13.37;;;;;;;-144.99;92.07;52319.69;5103112;28;20629;-76
2021/03/31 05:25:39;;;;;;;23.93;12.60;;;;;;;-144.99;92.30;52299.31;5095354;28;20197;-75
2021/03/31 05:28:06;;;;;;;17.60;13.33;;;;;;;-144.99;92.21;52248.34;5106026;28;20628;-76
2021/03/31 05:30:32;;;;;;;19.03;12.97;;;;;;;-144.99;92.14;52297.25;5111648;28;20192;-76
2021/03/31 05:32:59;;;;;;;17.87;11.40;;;;;;;-144.99;92.08;52254.47;5113615;28;20231;-74
2021/03/31 05:35:26;;;;;;;45.30;19.10;;;;;;;-144.99;91.88;52272.81;5113616;28;20192;-78
2021/03/31 05:37:52;;;;;;;19.37;11.60;;;;;;;-144.99;91.82;52264.66;5113577;28;20199;-75
2021/03/31 05:40:19;;;;;;;15.13;13.47;;;;;;;-144.99;91.81;52244.28;5113608;28;20291;-76
2021/03/31 05:42:45;;;;;;;16.43;12.60;;;;;;;-144.99;91.67;52264.66;5099163;28;20200;-75
2021/03/31 05:45:13;;;;;;;22.13;10.43;;;;;;;-144.99;91.54;52289.13;5103108;28;20196;-75
2021/03/31 05:47:41;;;;;;;18.30;11.90;;;;;;;-144.99;91.40;52240.19;5112684;28;20203;-78
2021/03/31 05:50:12;;;;;;;18.40;11.53;;;;;;;-144.99;91.23;52289.13;5100150;28;20613;-77
2021/03/31 05:52:39;;;;;;;19.90;12.03;;;;;;;-144.99;91.09;52264.66;5109237;28;20296;-75
2021/03/31 05:55:06;;;;;;;20.83;12.93;;;;;;;-144.99;90.84;52207.59;5105637;28;20195;-77
2021/03/31 05:57:35;;;;;;;19.07;12.33;;;;;;;-144.99;90.34;52280.97;5113790;28;20207;-75
2021/03/31 06:00:05;;;;;;;19.10;13.27;;;;;;;-144.99;90.07;52232.03;5113126;28;20223;-76
2021/03/31 06:02:31;;;;;;;21.70;13.80;;;;;;;-144.99;89.76;52227.97;5104752;28;20207;-76
2021/03/31 06:04:57;;;;;;;18.17;14.53;;;;;;;-144.99;89.46;52246.31;5108571;28;20200;-76
2021/03/31 06:07:25;;;;;;;23.70;13.47;;;;;;;-144.99;89.05;52242.22;5106196;28;20673;-75
2021/03/31 06:10:12;;;;;;;22.07;12.93;;;;;;;-144.99;88.77;52252.44;5112596;28;20227;-75
2021/03/31 06:12:40;;;;;;;18.50;13.43;;;;;;;-144.99;88.62;52244.28;5107859;28;20222;-75
2021/03/31 06:15:12;;;;;;;19.43;13.00;;;;;;;-144.99;88.39;52219.81;5103165;28;20293;-75
2021/03/31 06:17:46;;;;;;;17.43;12.33;;;;;;;-144.99;88.11;52248.34;5114634;28;20239;-77
2021/03/31 06:20:13;;;;;;;22.03;12.93;;;;;;;-144.99;87.84;52199.44;5105706;28;20232;-75
2021/03/31 06:22:52;;;;;;;17.90;12.17;;;;;;;-144.99;87.48;52236.13;5094169;28;20193;-76
2021/03/31 06:25:22;;;;;;;19.67;14.30;;;;;;;-144.99;87.01;52256.50;5102542;28;20202;-76
2021/03/31 06:27:53;;;;;;;21.53;16.03;;;;;;;-144.99;86.54;52238.16;5113532;28;20294;-76
2021/03/31 06:30:24;;;;;;;21.90;12.70;;;;;;;-144.99;85.94;52252.44;5100405;28;20272;-79
2021/03/31 06:32:52;;;;;;;24.33;17.83;;;;;;;-144.99;85.44;52215.75;5110960;28;20274;-77
2021/03/31 06:35:21;;;;;;;17.40;11.70;;;;;;;-144.99;85.10;52215.75;5106896;28;20261;-74
2021/03/31 06:37:48;;;;;;;26.07;15.13;;;;;;;-144.99;84.81;52238.16;5101193;28;20238;-75
2021/03/31 06:40:32;;;;;;;21.97;14.17;;;;;;;-144.99;84.04;52223.88;5106677;28;20243;-76
2021/03/31 06:43:08;;;;;;;24.37;19.50;;;;;;;-144.99;83.72;52232.03;5105127;28;20294;-75
2021/03/31 06:45:38;;;;;;;15.07;13.07;;;;;;;-144.99;83.19;52242.22;5108636;28;20199;-76
2021/03/31 06:48:07;;;;;;;21.47;15.27;;;;;;;-144.99;82.81;52236.13;5112056;28;20215;-75
2021/03/31 06:50:36;;;;;;;26.23;14.77;;;;;;;-144.99;82.11;52223.88;5097981;28;20227;-75
2021/03/31 06:53:05;;;;;;;17.83;13.37;;;;;;;-144.99;80.66;52223.88;5095119;28;20220;-76
2021/03/31 06:55:32;;;;;;;18.13;14.73;;;;;;;-144.99;80.17;52244.28;5104282;28;20348;-74
2021/03/31 06:58:01;;;;;;;16.10;12.83;;;;;;;-144.99;79.60;52283.00;5098779;28;20196;-76
2021/03/31 07:00:28;;;;;;;23.43;15.10;;;;;;;-144.99;78.45;52264.66;5110713;28;20204;-74
2021/03/31 07:02:58;;;;;;;21.20;15.13;;;;;;;-144.99;77.10;52211.66;5106780;28;20199;-73
2021/03/31 07:05:24;;;;;;;22.83;15.57;;;;;;;-144.99;76.83;52236.13;5101199;28;20196;-76
2021/03/31 07:08:01;;;;;;;17.70;15.20;;;;;;;-144.99;75.11;52227.97;5109893;28;20488;-76
2021/03/31 07:10:28;;;;;;;21.27;13.37;;;;;;;-144.99;75.00;52215.75;5114213;28;20206;-74
2021/03/31 07:12:55;;;;;;;22.47;15.80;;;;;;;-144.99;74.47;52207.59;5113792;28;20698;-77
2021/03/31 07:15:24;;;;;;;21.87;15.47;;;;;;;-144.99;74.71;52236.13;5110247;28;20207;-72
2021/03/31 07:17:53;;;;;;;22.50;13.00;;;;;;;-144.99;74.60;52201.47;5112084;28;20712;-73
2021/03/31 07:20:20;;;;;;;21.30;13.53;;;;;;;-144.99;74.72;52242.22;5107098;28;20205;-74
2021/03/31 07:22:47;;;;;;;19.13;14.30;;;;;;;-144.99;74.38;52236.13;5097782;28;20231;-76
2021/03/31 07:25:16;;;;;;;18.93;13.63;;;;;;;-144.99;71.86;52232.03;5102709;28;20715;-73
2021/03/31 07:27:44;;;;;;;20.03;15.10;;;;;;;-144.99;71.50;52209.63;5110072;28;20208;-75
2021/03/31 07:30:13;;;;;;;21.30;13.23;;;;;;;-144.99;70.96;52236.13;5108720;28;20224;-74
2021/03/31 07:32:51;;;;;;;17.93;11.57;;;;;;;-144.99;71.45;52168.84;5110724;28;20231;-75
2021/03/31 07:35:20;;;;;;;24.93;16.30;;;;;;;-144.99;69.68;52211.66;5105867;28;20291;-74
2021/03/31 07:37:47;;;;;;;16.70;13.53;;;;;;;-144.99;68.58;52227.97;5102912;28;20260;-75
2021/03/31 07:40:15;;;;;;;31.43;17.67;;;;;;;-144.99;67.73;52207.59;5113058;28;20609;-75
2021/03/31 07:42:47;;;;;;;19.30;14.70;;;;;;;-144.99;65.63;52219.81;5112556;28;20669;-74
2021/03/31 07:45:16;;;;;;;15.60;13.53;;;;;;;-144.99;64.45;52187.19;5106383;28;20613;-73
2021/03/31 07:47:44;;;;;;;21.00;15.20;;;;;;;-144.99;63.44;52195.34;5103755;28;20211;-77
2021/03/31 07:50:12;;;;;;;17.17;13.80;;;;;;;-144.99;62.63;52195.34;5106767;28;20278;-74
2021/03/31 07:52:54;;;;;;;19.57;15.50;;;;;;;-144.99;60.93;52211.66;5106002;28;20247;-74
2021/03/31 07:55:35;;;;;;;21.77;14.57;;;;;;;-144.99;59.76;52183.13;5098448;28;20203;-73
2021/03/31 07:58:28;;;;;;;20.37;16.10;;;;;;;-144.99;58.13;52211.66;5102487;28;20224;-75
2021/03/31 08:01:09;;;;;;;20.07;17.40;;;;;;;-144.99;57.21;52174.97;5099642;28;20439;-75
2021/03/31 08:03:38;;;;;;;19.83;15.93;;;;;;;-144.99;57.30;52154.59;5100909;28;20200;-76
2021/03/31 08:06:06;;;;;;;20.77;14.33;;;;;;;-144.99;55.91;52191.28;5102869;28;20226;-76
2021/03/31 08:08:34;;;;;;;20.67;16.03;;;;;;;-144.99;55.82;52154.59;5097252;28;20318;-76
2021/03/31 08:11:01;;;;;;;19.93;15.80;;;;;;;-144.99;55.16;52191.28;5097309;28;20610;-77
2021/03/31 08:13:30;;;;;;;22.20;15.73;;;;;;;-144.99;54.04;52166.81;5109073;28;20227;-77
2021/03/31 08:15:57;;;;;;;25.90;16.47;;;;;;;-144.99;53.90;52160.72;5109526;28;20206;-76
2021/03/31 08:18:25;;;;;;;16.67;13.53;;;;;;;-144.99;53.56;52166.81;5099163;28;20295;-76
2021/03/31 08:20:53;;;;;;;18.93;16.77;;;;;;;-144.99;52.61;52134.22;5092815;28;20206;-77
2021/03/31 08:23:48;;;;;;;25.60;16.37;;;;;;;-144.99;52.02;52142.38;5101805;28;20199;-78
2021/03/31 08:26:28;;;;;;;21.60;16.27;;;;;;;-144.99;50.84;52142.38;5094330;28;20284;-76
2021/03/31 08:28:55;;;;;;;24.83;15.83;;;;;;;-144.99;50.25;52138.28;5095046;28;20215;-76
2021/03/31 08:31:25;;;;;;;24.20;16.97;;;;;;;-144.99;48.59;52170.91;5092734;28;20200;-74
2021/03/31 08:33:51;;;;;;;20.40;15.43;;;;;;;-144.99;47.93;52146.44;5103608;28;20300;-75
2021/03/31 08:36:18;;;;;;;17.90;14.40;;;;;;;-144.99;47.33;52117.91;5111097;28;20210;-76
2021/03/31 08:38:50;;;;;;;22.43;14.20;;;;;;;-144.99;46.57;52117.91;5106118;28;20255;-75
2021/03/31 08:41:18;;;;;;;25.13;17.53;;;;;;;-144.99;45.48;52142.38;5090869;28;20208;-75
2021/03/31 08:43:45;;;;;;;25.07;17.77;;;;;;;-144.99;44.84;52126.06;5107042;28;20233;-75
2021/03/31 08:46:13;;;;;;;19.83;15.77;;;;;;;-144.99;44.54;52142.38;5110621;28;20555;-76
2021/03/31 08:48:41;;;;;;;22.37;16.70;;;;;;;-144.99;44.18;52093.44;5106088;28;20276;-75
2021/03/31 08:51:09;;;;;;;20.60;18.43;;;;;;;-144.99;43.61;52132.19;5090573;28;20280;-75
2021/03/31 08:53:35;;;;;;;25.27;16.70;;;;;;;-144.99;43.39;52174.97;5099997;28;20227;-76
2021/03/31 08:56:03;;;;;;;24.03;16.13;;;;;;;-144.99;42.51;52101.59;5101198;28;20200;-74
2021/03/31 08:58:29;;;;;;;23.60;15.87;;;;;;;-144.99;42.06;52097.53;5102159;28;20232;-76
2021/03/31 09:00:55;;;;;;;18.93;15.53;;;;;;;-144.99;41.38;52117.91;5094785;28;20297;-75
2021/03/31 09:03:29;;;;;;;21.73;16.80;;;;;;;-144.99;41.13;52121.97;5100370;28;20212;-74
2021/03/31 09:06:00;;;;;;;20.63;15.33;;;;;;;-144.99;41.09;52119.94;5100435;28;20253;-74
2021/03/31 09:08:28;;;;;;;24.27;18.10;;;;;;;-144.99;40.62;52138.28;5096586;28;20314;-79
2021/03/31 09:10:56;;;;;;;20.87;16.30;;;;;;;-144.99;40.22;52132.19;5097495;28;20348;-79
2021/03/31 09:13:24;;;;;;;24.97;18.13;;;;;;;-144.99;39.90;52113.84;5096071;28;20227;-75
2021/03/31 09:15:55;;;;;;;22.30;16.83;;;;;;;-144.99;40.19;52126.06;5100328;28;20196;-77
2021/03/31 09:18:24;;;;;;;27.17;18.53;;;;;;;-144.99;39.45;52126.06;5094647;28;20261;-76
2021/03/31 09:20:50;;;;;;;24.23;16.50;;;;;;;-144.99;38.73;52105.69;5098739;28;20197;-78
2021/03/31 09:23:21;;;;;;;25.73;17.67;;;;;;;-144.99;38.70;52113.84;5095480;28;20338;-76
2021/03/31 09:26:01;;;;;;;24.53;18.93;;;;;;;-144.99;38.22;52105.69;5096307;28;20188;-76
2021/03/31 09:28:28;;;;;;;23.67;18.57;;;;;;;-144.99;38.00;52115.88;5102652;28;20227;-74
2021/03/31 09:30:58;;;;;;;23.03;18.90;;;;;;;-144.99;37.75;52117.91;5098116;28;20202;-76
2021/03/31 09:33:31;;;;;;;26.60;19.53;;;;;;;-144.99;37.60;52130.13;5109171;28;20779;-77
2021/03/31 09:36:10;;;;;;;26.73;20.67;;;;;;;-144.99;36.88;52101.59;5110530;28;20204;-76
2021/03/31 09:38:36;;;;;;;30.40;21.47;;;;;;;-144.99;36.65;52071.03;5095355;28;20257;-78
2021/03/31 09:41:04;;;;;;;26.30;20.00;;;;;;;-144.99;36.21;52115.88;5098867;28;20198;-79
2021/03/31 09:43:32;;;;;;;25.83;19.07;;;;;;;-144.99;35.66;52093.44;5101056;28;20557;-76
2021/03/31 09:45:58;;;;;;;24.70;18.50;;;;;;;-144.99;35.82;52111.78;5103185;28;20210;-76
2021/03/31 09:48:26;;;;;;;22.87;18.47;;;;;;;-144.99;35.24;52085.31;5097360;28;20226;-76
2021/03/31 09:50:53;;;;;;;24.03;19.50;;;;;;;-144.99;34.59;52056.78;5098591;28;20195;-78
2021/03/31 09:53:23;;;;;;;23.80;18.80;;;;;;;-144.99;34.26;52085.31;5096359;28;20594;-74
2021/03/31 09:55:50;;;;;;;24.50;20.00;;;;;;;-144.99;33.38;52044.53;5106385;28;20301;-77
2021/03/31 09:58:24;;;;;;;24.77;19.00;;;;;;;-144.99;33.04;52032.31;5107048;28;20264;-78
2021/03/31 10:00:51;;;;;;;31.20;20.30;;;;;;;-144.99;32.88;52069.00;5109595;28;20196;-75
2021/03/31 10:03:19;;;;;;;24.80;17.60;;;;;;;-144.99;31.69;52007.84;5104694;28;20523;-75
2021/03/31 10:05:46;;;;;;;21.43;18.37;;;;;;;-144.99;32.04;52048.63;5100751;28;20276;-75
2021/03/31 10:08:22;;;;;;;35.90;21.33;;;;;;;-144.99;31.80;52044.53;5112061;28;20234;-78
2021/03/31 10:10:49;;;;;;;29.07;21.37;;;;;;;-144.99;31.71;52064.91;5108746;28;20452;-77
2021/03/31 10:13:17;;;;;;;32.73;22.20;;;;;;;-144.99;31.08;52056.78;5101831;28;20212;-75
2021/03/31 10:15:46;;;;;;;25.53;21.07;;;;;;;-144.99;30.27;52048.63;5100995;28;20216;-77
2021/03/31 10:18:13;;;;;;;22.23;16.23;;;;;;;-144.99;28.98;51987.47;5104830;28;20623;-75
2021/03/31 10:20:46;;;;;;;18.53;16.57;;;;;;;-144.99;28.65;51995.63;5096814;28;20206;-76
2021/03/31 10:23:24;;;;;;;21.93;16.97;;;;;;;-144.99;27.71;51993.59;5111026;22;20228;-78
2021/03/31 10:25:50;;;;;;;20.70;15.23;;;;;;;-144.99;27.64;51991.56;5097714;28;20449;-79
2021/03/31 10:28:36;;;;;;;19.40;14.00;;;;;;;-144.99;27.11;52005.81;5094172;28;20221;-79
2021/03/31 10:31:24;;;;;;;19.70;16.10;;;;;;;-144.99;26.14;51963.03;5094875;28;20241;-79
2021/03/31 10:33:52;;;;;;;21.30;14.80;;;;;;;-144.99;26.03;51926.34;5095251;28;20257;-79
2021/03/31 10:36:44;;;;;;;20.77;14.37;;;;;;;-144.99;26.27;51956.91;5094667;28;20199;-80
2021/03/31 10:50:36;;;;;;;20.30;13.33;;;;;;;-144.99;25.15;51901.88;5087396;28;20297;-79
2021/03/31 10:53:04;;;;;;;18.37;14.33;;;;;;;-144.99;25.19;51934.50;5084788;28;20224;-78
2021/03/31 10:55:31;;;;;;;26.20;15.20;;;;;;;-144.99;25.02;51914.09;5091623;28;20222;-78
2021/03/31 10:57:57;;;;;;;21.70;15.13;;;;;;;-144.99;25.55;51901.88;5097475;28;20207;-79
2021/03/31 11:00:23;;;;;;;20.90;14.93;;;;;;;-144.99;25.53;51901.88;5099994;28;20201;-78
2021/03/31 11:02:50;;;;;;;21.70;14.57;;;;;;;-144.99;25.54;51844.81;5095484;28;20225;-79
2021/03/31 11:05:17;;;;;;;19.47;13.57;;;;;;;-144.99;24.46;51869.28;5098256;28;20276;-78
2021/03/31 11:07:43;;;;;;;20.83;17.33;;;;;;;-144.99;25.39;51893.72;5086868;28;20247;-77
2021/03/31 11:10:12;;;;;;;25.80;17.20;;;;;;;-144.99;25.62;51877.44;5086957;28;20262;-79
2021/03/31 11:12:39;;;;;;;22.57;18.17;;;;;;;-144.99;25.40;51844.81;5088968;28;20220;-80
2021/03/31 11:15:08;;;;;;;22.43;16.10;;;;;;;-144.99;25.54;51995.63;5092582;28;20283;-80
2021/03/31 11:17:42;;;;;;;23.40;15.90;;;;;;;-144.99;25.68;51832.59;5091537;28;20207;-81
2021/03/31 11:20:20;;;;;;;22.17;14.70;;;;;;;-144.99;25.71;51783.69;5088716;28;20191;-78
2021/03/31 11:25:46;;;;;;;20.20;15.63;;;;;;;-144.99;24.94;51795.91;5088240;28;20209;-77